createdAt,value
2023-02-01T00:00:56.864Z,24.98
2023-02-01T00:03:23.337Z,30.38
2023-02-01T00:05:58.010Z,26.90
2023-02-01T00:08:24.513Z,27.08
2023-02-01T00:10:59.166Z,27.90
2023-02-01T00:13:25.556Z,24.23
2023-02-01T00:15:51.944Z,28.95
2023-02-01T00:18:18.417Z,26.20
2023-02-01T00:20:48.071Z,24.55
2023-02-01T00:23:14.469Z,28.15
2023-02-01T00:25:40.851Z,28.02
2023-02-01T00:28:07.282Z,27.25
2023-02-01T00:30:33.715Z,26.75
2023-02-01T00:33:01.146Z,18.35
2023-02-01T00:35:27.520Z,25.63
2023-02-01T00:37:53.979Z,23.13
2023-02-01T00:40:20.770Z,20.50
2023-02-01T00:42:47.583Z,19.38
2023-02-01T00:45:13.968Z,21.65
2023-02-01T00:47:40.395Z,20.80
2023-02-01T00:50:06.991Z,27.17
2023-02-01T00:52:33.379Z,23.50
2023-02-01T00:54:59.897Z,22.48
2023-02-01T00:57:26.342Z,20.90
2023-02-01T00:59:52.720Z,23.63
2023-02-01T01:02:19.181Z,22.80
2023-02-01T01:04:45.617Z,25.13
2023-02-01T01:07:12.040Z,27.30
2023-02-01T01:09:40.779Z,22.88
2023-02-01T01:12:07.170Z,30.13
2023-02-01T01:14:33.833Z,22.17
2023-02-01T01:17:00.320Z,20.08
2023-02-01T01:19:26.720Z,24.58
2023-02-01T01:21:53.181Z,24.60
2023-02-01T01:24:19.557Z,29.85
2023-02-01T01:26:46.094Z,26.00
2023-02-01T01:29:12.533Z,28.70
2023-02-01T01:31:38.959Z,29.17
2023-02-01T01:34:07.019Z,30.10
2023-02-01T01:36:33.428Z,23.80
2023-02-01T01:39:00.055Z,26.00
2023-02-01T01:41:30.191Z,22.27
2023-02-01T01:44:01.910Z,21.15
2023-02-01T01:46:32.801Z,27.15
2023-02-01T01:49:04.209Z,25.13
2023-02-01T01:51:31.124Z,26.73
2023-02-01T01:54:06.051Z,27.02
2023-02-01T01:56:33.497Z,23.98
2023-02-01T01:59:00.325Z,26.63
2023-02-01T02:01:27.145Z,19.67
2023-02-01T02:03:54.522Z,23.00
2023-02-01T02:06:41.371Z,26.15
2023-02-01T02:09:07.830Z,23.83
2023-02-01T02:11:34.443Z,20.70
2023-02-01T02:14:01.018Z,23.58
2023-02-01T02:16:52.068Z,20.75
2023-02-01T02:19:25.236Z,23.60
2023-02-01T02:22:13.557Z,27.98
2023-02-01T02:25:04.843Z,31.38
2023-02-01T02:28:14.547Z,32.63
2023-02-01T02:31:08.694Z,34.28
2023-02-01T02:33:53.140Z,24.15
2023-02-01T02:36:38.153Z,27.10
2023-02-01T02:39:25.643Z,27.58
2023-02-01T02:42:28.006Z,26.38
2023-02-01T02:45:22.643Z,18.15
2023-02-01T02:47:59.125Z,22.77
2023-02-01T02:50:52.155Z,18.38
2023-02-01T02:54:07.058Z,28.45
2023-02-01T02:56:52.645Z,25.40
2023-02-01T02:59:39.637Z,28.95
2023-02-01T03:02:24.804Z,20.95
2023-02-01T03:04:57.832Z,22.85
2023-02-01T03:07:47.288Z,22.30
2023-02-01T03:10:43.144Z,29.25
2023-02-01T03:13:14.346Z,21.10
2023-02-01T03:15:44.831Z,27.20
2023-02-01T03:18:25.577Z,24.88
2023-02-01T03:20:53.367Z,24.30
2023-02-01T03:23:21.703Z,28.25
2023-02-01T03:25:50.135Z,19.50
2023-02-01T03:28:20.223Z,21.90
2023-02-01T03:30:46.620Z,19.10
2023-02-01T03:33:23.097Z,25.40
2023-02-01T03:36:02.211Z,26.17
2023-02-01T03:38:33.115Z,29.15
2023-02-01T03:41:05.537Z,24.02
2023-02-01T03:43:37.577Z,22.75
2023-02-01T03:46:07.718Z,26.75
2023-02-01T03:48:34.716Z,18.20
2023-02-01T03:51:02.430Z,25.73
2023-02-01T03:53:29.353Z,20.77
2023-02-01T03:55:56.561Z,21.65
2023-02-01T03:58:24.135Z,20.80
2023-02-01T04:00:58.466Z,19.52
2023-02-01T04:03:25.938Z,18.73
2023-02-01T04:05:52.998Z,23.90
2023-02-01T04:08:20.609Z,21.17
2023-02-01T04:10:47.070Z,20.98
2023-02-01T04:13:13.892Z,25.20
2023-02-01T04:15:40.500Z,23.98
2023-02-01T04:18:09.580Z,27.60
2023-02-01T04:20:36.018Z,22.13
2023-02-01T04:23:03.471Z,19.92
2023-02-01T04:25:30.878Z,21.73
2023-02-01T04:27:57.262Z,21.33
2023-02-01T04:30:25.124Z,21.30
2023-02-01T04:32:51.755Z,20.63
2023-02-01T04:35:18.799Z,22.02
2023-02-01T04:37:45.212Z,20.15
2023-02-01T04:40:12.071Z,20.33
2023-02-01T04:42:38.529Z,22.33
2023-02-01T04:45:05.455Z,19.63
2023-02-01T04:47:34.276Z,21.30
2023-02-01T04:50:00.698Z,20.10
2023-02-01T04:52:28.291Z,27.60
2023-02-01T04:54:59.255Z,23.15
2023-02-01T04:57:25.988Z,24.65
2023-02-01T04:59:52.404Z,23.00
2023-02-01T05:02:18.781Z,22.80
2023-02-01T05:04:45.176Z,26.27
2023-02-01T05:07:11.639Z,25.00
2023-02-01T05:09:38.038Z,22.15
2023-02-01T05:12:24.172Z,14.77
2023-02-01T05:14:50.578Z,21.83
2023-02-01T05:17:16.974Z,23.88
2023-02-01T05:19:43.587Z,19.08
2023-02-01T05:22:10.014Z,25.23
2023-02-01T05:24:36.571Z,19.88
2023-02-01T05:27:03.016Z,20.20
2023-02-01T05:29:29.494Z,21.60
2023-02-01T05:31:55.947Z,23.42
2023-02-01T05:34:22.505Z,20.98
2023-02-01T05:36:49.028Z,21.98
2023-02-01T05:39:15.490Z,15.75
2023-02-01T05:41:41.948Z,24.33
2023-02-01T05:44:08.401Z,20.23
2023-02-01T05:46:36.458Z,13.65
2023-02-01T05:49:03.343Z,21.58
2023-02-01T05:51:29.759Z,20.95
2023-02-01T05:53:56.143Z,23.95
2023-02-01T05:56:22.703Z,19.05
2023-02-01T05:58:49.105Z,19.85
2023-02-01T06:01:15.550Z,20.00
2023-02-01T06:03:42.037Z,24.23
2023-02-01T06:06:08.458Z,23.70
2023-02-01T06:08:34.868Z,31.63
2023-02-01T06:11:02.595Z,19.38
2023-02-01T06:13:28.978Z,24.20
2023-02-01T06:15:56.823Z,22.85
2023-02-01T06:18:23.897Z,29.40
2023-02-01T06:20:55.510Z,26.27
2023-02-01T06:23:24.655Z,24.33
2023-02-01T06:25:52.846Z,18.15
2023-02-01T06:28:19.406Z,18.48
2023-02-01T06:30:47.042Z,31.92
2023-02-01T06:33:16.071Z,24.92
2023-02-01T06:35:45.144Z,21.35
2023-02-01T06:38:12.530Z,18.92
2023-02-01T06:40:39.361Z,25.33
2023-02-01T06:43:05.842Z,19.63
2023-02-01T06:45:32.244Z,21.40
2023-02-01T06:47:59.784Z,25.88
2023-02-01T06:50:26.147Z,21.83
2023-02-01T06:52:52.552Z,31.02
2023-02-01T06:55:18.933Z,24.25
2023-02-01T06:57:45.352Z,21.20
2023-02-01T07:00:12.159Z,17.83
2023-02-01T07:02:39.911Z,19.30
2023-02-01T07:05:06.395Z,21.05
2023-02-01T07:07:32.897Z,21.63
2023-02-01T07:09:59.319Z,19.08
2023-02-01T07:12:25.785Z,23.48
2023-02-01T07:14:52.182Z,22.50
2023-02-01T07:17:18.593Z,23.13
2023-02-01T07:19:44.965Z,25.23
2023-02-01T07:22:11.369Z,20.65
2023-02-01T07:24:37.915Z,18.70
2023-02-01T07:27:04.622Z,26.88
2023-02-01T07:29:33.454Z,22.05
2023-02-01T07:31:59.931Z,23.55
2023-02-01T07:34:26.441Z,19.85
2023-02-01T07:36:52.960Z,19.40
2023-02-01T07:39:19.384Z,24.27
2023-02-01T07:41:46.988Z,17.58
2023-02-01T07:44:13.505Z,20.45
2023-02-01T07:46:40.506Z,22.52
2023-02-01T07:49:06.966Z,21.92
2023-02-01T07:51:33.524Z,17.30
2023-02-01T07:54:00.197Z,20.85
2023-02-01T07:56:26.690Z,19.35
2023-02-01T07:58:56.836Z,18.38
2023-02-01T08:01:25.785Z,21.35
2023-02-01T08:03:57.140Z,21.15
2023-02-01T08:06:24.439Z,19.38
2023-02-01T08:08:51.142Z,22.17
2023-02-01T08:11:18.116Z,17.45
2023-02-01T08:13:45.420Z,18.30
2023-02-01T08:16:13.862Z,20.83
2023-02-01T08:18:41.039Z,19.38
2023-02-01T08:21:19.801Z,24.67
2023-02-01T08:23:46.301Z,20.48
2023-02-01T08:26:21.080Z,18.90
2023-02-01T08:28:56.524Z,23.17
2023-02-01T08:31:24.557Z,18.42
2023-02-01T08:33:54.437Z,24.52
2023-02-01T08:36:21.697Z,21.73
2023-02-01T08:38:48.313Z,23.08
2023-02-01T08:41:17.940Z,21.58
2023-02-01T08:43:45.105Z,19.05
2023-02-01T08:46:12.244Z,26.92
2023-02-01T08:48:42.083Z,22.30
2023-02-01T08:51:11.377Z,17.90
2023-02-01T08:53:38.833Z,21.50
2023-02-01T08:56:05.983Z,15.88
2023-02-01T08:58:32.549Z,22.15
2023-02-01T09:01:04.067Z,19.10
2023-02-01T09:03:30.559Z,16.98
2023-02-01T09:06:11.267Z,19.60
2023-02-01T09:08:38.540Z,16.88
2023-02-01T09:11:13.159Z,15.75
2023-02-01T09:13:39.587Z,20.23
2023-02-01T09:16:06.475Z,21.25
2023-02-01T09:18:33.011Z,19.25
2023-02-01T09:20:59.436Z,19.05
2023-02-01T09:23:26.128Z,20.33
2023-02-01T09:25:53.091Z,15.82
2023-02-01T09:28:19.977Z,20.65
2023-02-01T09:30:46.747Z,13.30
2023-02-01T09:33:13.232Z,21.23
2023-02-01T09:35:39.664Z,22.25
2023-02-01T09:38:06.127Z,24.67
2023-02-01T09:40:35.157Z,16.00
2023-02-01T09:43:12.620Z,17.25
2023-02-01T09:45:53.842Z,21.83
2023-02-01T09:48:22.462Z,19.85
2023-02-01T09:50:56.621Z,25.77
2023-02-01T09:53:24.540Z,20.20
2023-02-01T09:55:52.486Z,17.33
2023-02-01T09:58:35.939Z,14.43
2023-02-01T10:01:04.327Z,18.70
2023-02-01T10:03:33.227Z,11.80
2023-02-01T10:06:11.242Z,21.45
2023-02-01T10:09:00.969Z,20.35
2023-02-01T10:11:49.167Z,18.35
2023-02-01T10:14:24.699Z,17.10
2023-02-01T10:16:59.196Z,20.33
2023-02-01T10:19:39.167Z,17.02
2023-02-01T10:22:55.072Z,19.35
2023-02-01T10:25:22.778Z,22.08
2023-02-01T10:27:50.011Z,15.68
2023-02-01T10:30:22.969Z,21.50
2023-02-01T10:32:53.053Z,21.55
2023-02-01T10:35:25.189Z,17.40
2023-02-01T10:37:51.970Z,16.30
2023-02-01T10:40:24.792Z,16.25
2023-02-01T10:42:54.580Z,22.35
2023-02-01T10:45:23.076Z,25.48
2023-02-01T10:47:51.734Z,22.23
2023-02-01T10:50:33.500Z,16.13
2023-02-01T10:53:05.682Z,12.83
2023-02-01T10:55:41.468Z,18.63
2023-02-01T10:58:38.126Z,20.30
2023-02-01T11:01:07.385Z,17.63
2023-02-01T11:03:55.527Z,20.77
2023-02-01T11:06:31.276Z,19.27
2023-02-01T11:09:10.683Z,19.83
2023-02-01T11:11:49.257Z,19.38
2023-02-01T11:14:21.915Z,14.85
2023-02-01T11:17:14.670Z,20.73
2023-02-01T11:19:45.725Z,14.05
2023-02-01T11:22:13.329Z,15.65
2023-02-01T11:24:40.423Z,18.15
2023-02-01T11:27:18.903Z,16.90
2023-02-01T11:29:52.021Z,16.48
2023-02-01T11:32:20.499Z,16.83
2023-02-01T11:34:56.894Z,19.67
2023-02-01T11:37:27.505Z,21.17
2023-02-01T11:39:59.519Z,22.73
2023-02-01T11:42:27.542Z,19.63
2023-02-01T11:45:21.431Z,13.77
2023-02-01T11:47:47.912Z,16.60
2023-02-01T11:50:20.573Z,16.02
2023-02-01T11:53:03.613Z,14.80
2023-02-01T11:55:39.128Z,16.73
2023-02-01T11:58:40.583Z,15.70
2023-02-01T12:01:13.126Z,17.15
2023-02-01T12:06:30.719Z,15.95
2023-02-01T12:09:03.490Z,15.05
2023-02-01T12:11:47.924Z,19.60
2023-02-01T12:14:52.022Z,19.50
2023-02-01T12:17:43.093Z,13.15
2023-02-01T12:20:48.549Z,8.55
2023-02-01T12:23:20.735Z,18.95
2023-02-01T12:26:08.592Z,15.40
2023-02-01T12:29:01.993Z,12.27
2023-02-01T12:31:40.782Z,9.77
2023-02-01T12:34:14.985Z,11.07
2023-02-01T12:36:52.669Z,13.20
2023-02-01T12:39:25.100Z,13.75
2023-02-01T12:44:33.995Z,11.68
2023-02-01T12:47:06.431Z,12.50
2023-02-01T12:52:11.439Z,15.45
2023-02-01T12:55:01.709Z,11.38
2023-02-01T12:57:33.648Z,12.93
2023-02-01T13:00:10.816Z,13.23
2023-02-01T13:02:44.491Z,15.80
2023-02-01T13:05:19.895Z,15.27
2023-02-01T13:07:54.222Z,15.95
2023-02-01T13:10:34.441Z,9.32
2023-02-01T13:13:34.389Z,12.80
2023-02-01T13:16:19.123Z,12.57
2023-02-01T13:18:52.094Z,12.05
2023-02-01T13:21:23.785Z,10.82
2023-02-01T13:23:51.660Z,14.53
2023-02-01T13:26:18.120Z,16.58
2023-02-01T13:29:01.432Z,13.52
2023-02-01T13:31:56.819Z,16.45
2023-02-01T13:34:50.175Z,14.45
2023-02-01T13:37:29.867Z,13.10
2023-02-01T13:40:17.626Z,14.20
2023-02-01T13:42:50.713Z,15.73
2023-02-01T13:45:21.676Z,14.70
2023-02-01T13:47:53.847Z,14.05
2023-02-01T13:50:39.585Z,16.27
2023-02-01T13:53:19.396Z,16.52
2023-02-01T13:55:47.125Z,15.07
2023-02-01T13:58:20.582Z,15.82
2023-02-01T14:00:48.255Z,15.77
2023-02-01T14:03:18.934Z,15.32
2023-02-01T14:05:45.233Z,14.45
2023-02-01T14:08:14.350Z,16.65
2023-02-01T14:10:51.791Z,16.58
2023-02-01T14:13:29.538Z,20.88
2023-02-01T14:16:05.056Z,16.83
2023-02-01T14:18:34.461Z,19.90
2023-02-01T14:21:22.914Z,22.58
2023-02-01T14:24:08.525Z,14.70
2023-02-01T14:26:37.883Z,15.10
2023-02-01T14:29:21.267Z,17.20
2023-02-01T14:32:19.107Z,17.70
2023-02-01T14:34:48.553Z,12.95
2023-02-01T14:37:17.929Z,17.45
2023-02-01T14:39:47.391Z,15.20
2023-02-01T14:42:23.399Z,10.57
2023-02-01T14:44:59.906Z,13.57
2023-02-01T14:47:30.439Z,14.15
2023-02-01T14:50:12.206Z,11.60
2023-02-01T14:52:43.816Z,10.40
2023-02-01T14:55:26.245Z,12.63
2023-02-01T14:57:54.985Z,13.52
2023-02-01T15:00:30.201Z,12.48
2023-02-01T15:03:17.044Z,11.00
2023-02-01T15:05:43.517Z,10.50
2023-02-01T15:08:20.011Z,12.20
2023-02-01T15:10:48.780Z,13.93
2023-02-01T15:13:26.522Z,9.52
2023-02-01T15:16:10.896Z,11.35
2023-02-01T15:18:37.580Z,10.38
2023-02-01T15:21:09.763Z,12.55
2023-02-01T15:24:11.114Z,13.02
2023-02-01T15:26:37.588Z,9.85
2023-02-01T15:29:04.028Z,16.27
2023-02-01T15:31:39.426Z,14.65
2023-02-01T15:34:06.404Z,11.13
2023-02-01T15:36:33.278Z,11.88
2023-02-01T15:39:32.429Z,14.52
2023-02-01T15:42:03.008Z,12.15
2023-02-01T15:44:44.021Z,16.27
2023-02-01T15:47:22.780Z,17.20
2023-02-01T15:49:52.878Z,19.67
2023-02-01T15:52:36.599Z,15.85
2023-02-01T15:55:07.015Z,16.70
2023-02-01T15:57:40.428Z,18.65
2023-02-01T16:00:26.289Z,19.35
2023-02-01T16:02:52.654Z,15.02
2023-02-01T16:05:45.855Z,16.33
2023-02-01T16:08:22.811Z,15.10
2023-02-01T16:10:51.727Z,16.60
2023-02-01T16:13:19.629Z,13.30
2023-02-01T16:15:48.990Z,18.17
2023-02-01T16:18:18.470Z,17.27
2023-02-01T16:20:46.334Z,23.73
2023-02-01T16:23:12.822Z,13.25
2023-02-01T16:25:40.783Z,20.67
2023-02-01T16:28:07.712Z,21.50
2023-02-01T16:30:34.302Z,18.27
2023-02-01T16:33:06.332Z,17.92
2023-02-01T16:35:38.466Z,19.65
2023-02-01T16:38:09.715Z,17.88
2023-02-01T16:40:36.497Z,14.45
2023-02-01T16:43:03.217Z,18.15
2023-02-01T16:45:29.725Z,14.68
2023-02-01T16:47:56.842Z,13.85
2023-02-01T16:50:24.901Z,11.80
2023-02-01T16:52:52.363Z,10.80
2023-02-01T16:55:22.534Z,9.18
2023-02-01T16:57:49.733Z,9.15
2023-02-01T17:00:24.681Z,11.80
2023-02-01T17:02:52.359Z,11.23
2023-02-01T17:05:18.784Z,13.52
2023-02-01T17:07:45.206Z,13.75
2023-02-01T17:10:32.567Z,15.63
2023-02-01T17:12:59.644Z,15.52
2023-02-01T17:15:29.217Z,13.00
2023-02-01T17:17:57.552Z,21.73
2023-02-01T17:20:25.317Z,19.20
2023-02-01T17:22:53.113Z,19.23
2023-02-01T17:25:22.595Z,21.65
2023-02-01T17:27:49.627Z,25.83
2023-02-01T17:30:16.382Z,18.30
2023-02-01T17:32:42.966Z,24.15
2023-02-01T17:35:28.875Z,19.45
2023-02-01T17:37:55.952Z,26.08
2023-02-01T17:40:23.138Z,17.02
2023-02-01T17:42:50.188Z,19.83
2023-02-01T17:45:38.024Z,18.35
2023-02-01T17:48:05.640Z,20.00
2023-02-01T17:50:33.426Z,24.25
2023-02-01T17:52:59.803Z,14.85
2023-02-01T17:55:27.224Z,19.95
2023-02-01T17:57:53.653Z,16.40
2023-02-01T18:00:20.377Z,21.60
2023-02-01T18:02:46.846Z,12.93
2023-02-01T18:05:27.485Z,18.65
2023-02-01T18:07:53.896Z,15.77
2023-02-01T18:10:20.304Z,22.65
2023-02-01T18:12:46.840Z,17.85
2023-02-01T18:15:21.282Z,19.50
2023-02-01T18:17:48.045Z,17.17
2023-02-01T18:20:20.612Z,18.45
2023-02-01T18:22:49.824Z,21.98
2023-02-01T18:25:26.475Z,22.73
2023-02-01T18:27:54.590Z,19.55
2023-02-01T18:30:22.603Z,17.73
2023-02-01T18:32:49.392Z,23.05
2023-02-01T18:35:21.886Z,13.57
2023-02-01T18:37:49.797Z,16.48
2023-02-01T18:40:21.757Z,20.35
2023-02-01T18:42:48.623Z,17.38
2023-02-01T18:45:36.677Z,17.55
2023-02-01T18:48:04.401Z,17.08
2023-02-01T18:50:32.619Z,19.05
2023-02-01T18:53:00.623Z,14.98
2023-02-01T18:55:28.418Z,21.42
2023-02-01T18:57:55.069Z,17.55
2023-02-01T19:00:22.239Z,15.50
2023-02-01T19:02:48.939Z,18.15
2023-02-01T19:05:16.440Z,20.02
2023-02-01T19:07:43.605Z,20.70
2023-02-01T19:10:22.198Z,16.70
2023-02-01T19:12:50.490Z,20.85
2023-02-01T19:15:17.527Z,14.88
2023-02-01T19:17:46.465Z,18.00
2023-02-01T19:20:14.688Z,21.13
2023-02-01T19:22:41.133Z,15.27
2023-02-01T19:25:09.581Z,21.92
2023-02-01T19:27:36.067Z,17.90
2023-02-01T19:30:05.677Z,19.75
2023-02-01T19:32:32.059Z,13.90
2023-02-01T19:34:58.446Z,16.75
2023-02-01T19:37:25.392Z,22.85
2023-02-01T19:39:51.799Z,21.52
2023-02-01T19:42:18.366Z,17.33
2023-02-01T19:44:45.225Z,17.45
2023-02-01T19:47:11.622Z,22.88
2023-02-01T19:49:38.227Z,21.02
2023-02-01T19:52:04.860Z,16.45
2023-02-01T19:54:31.242Z,21.25
2023-02-01T19:56:57.598Z,19.40
2023-02-01T19:59:24.108Z,17.75
2023-02-01T20:01:50.367Z,14.13
2023-02-01T20:04:17.740Z,26.33
2023-02-01T20:06:48.872Z,12.90
2023-02-01T20:09:20.191Z,22.83
2023-02-01T20:11:46.969Z,18.83
2023-02-01T20:14:13.487Z,17.23
2023-02-01T20:16:40.877Z,21.30
2023-02-01T20:19:09.215Z,12.20
2023-02-01T20:21:37.181Z,16.50
2023-02-01T20:24:05.007Z,18.50
2023-02-01T20:26:34.369Z,22.80
2023-02-01T20:29:01.640Z,17.42
2023-02-01T20:31:29.740Z,17.17
2023-02-01T20:34:00.933Z,16.38
2023-02-01T20:36:28.650Z,20.35
2023-02-01T20:38:56.149Z,19.73
2023-02-01T20:41:23.136Z,22.20
2023-02-01T20:43:49.813Z,20.45
2023-02-01T20:46:16.690Z,18.00
2023-02-01T20:48:44.276Z,23.73
2023-02-01T20:51:11.961Z,20.35
2023-02-01T20:53:39.297Z,22.25
2023-02-01T20:56:06.438Z,24.30
2023-02-01T20:58:33.272Z,25.23
2023-02-01T21:00:59.735Z,26.33
2023-02-01T21:03:26.303Z,20.73
2023-02-01T21:05:55.224Z,20.98
2023-02-01T21:08:21.919Z,23.13
2023-02-01T21:11:05.270Z,17.15
2023-02-01T21:13:38.173Z,23.23
2023-02-01T21:16:07.769Z,20.92
2023-02-01T21:18:34.229Z,21.23
2023-02-01T21:21:08.478Z,17.30
2023-02-01T21:23:44.793Z,21.40
2023-02-01T21:26:21.991Z,24.60
2023-02-01T21:28:48.947Z,18.33
2023-02-01T21:31:17.096Z,22.75
2023-02-01T21:33:46.716Z,24.58
2023-02-01T21:36:19.010Z,24.42
2023-02-01T21:38:52.341Z,18.67
2023-02-01T21:41:39.116Z,19.25
2023-02-01T21:44:05.854Z,20.42
2023-02-01T21:46:32.295Z,18.08
2023-02-01T21:49:05.454Z,21.42
2023-02-01T21:51:35.283Z,15.48
2023-02-01T21:54:02.006Z,20.88
2023-02-01T21:56:28.428Z,20.05
2023-02-01T21:58:55.247Z,23.27
2023-02-01T22:01:22.146Z,19.50
2023-02-01T22:03:49.237Z,13.38
2023-02-01T22:06:27.055Z,20.92
2023-02-01T22:08:54.176Z,20.02
2023-02-01T22:11:21.005Z,22.25
2023-02-01T22:13:47.640Z,20.63
2023-02-01T22:16:15.720Z,20.48
2023-02-01T22:18:42.105Z,27.90
2023-02-01T22:21:08.771Z,19.70
2023-02-01T22:23:35.147Z,17.75
2023-02-01T22:26:02.750Z,17.50
2023-02-01T22:28:31.745Z,19.38
2023-02-01T22:31:01.755Z,16.52
2023-02-01T22:33:28.691Z,16.40
2023-02-01T22:35:55.101Z,14.48
2023-02-01T22:38:21.925Z,15.10
2023-02-01T22:40:58.927Z,17.02
2023-02-01T22:43:25.601Z,18.05
2023-02-01T22:45:52.492Z,19.08
2023-02-01T22:48:18.944Z,20.20
2023-02-01T22:50:45.455Z,20.27
2023-02-01T22:53:12.291Z,16.73
2023-02-01T22:55:40.915Z,23.15
2023-02-01T22:58:08.211Z,20.80
2023-02-01T23:00:34.846Z,17.15
2023-02-01T23:03:01.271Z,17.75
2023-02-01T23:05:27.703Z,21.40
2023-02-01T23:07:54.159Z,15.20
2023-02-01T23:10:21.588Z,24.90
2023-02-01T23:12:48.893Z,20.48
2023-02-01T23:15:16.201Z,18.10
2023-02-01T23:17:43.823Z,27.10
2023-02-01T23:20:18.379Z,28.17
2023-02-01T23:22:47.077Z,21.83
2023-02-01T23:25:15.296Z,22.17
2023-02-01T23:27:42.111Z,18.63
2023-02-01T23:30:09.546Z,20.40
2023-02-01T23:32:36.340Z,15.77
2023-02-01T23:35:04.297Z,21.58
2023-02-01T23:37:30.831Z,19.20
2023-02-01T23:39:57.220Z,19.95
2023-02-01T23:42:23.658Z,19.30
2023-02-01T23:44:50.049Z,21.23
2023-02-01T23:47:16.529Z,24.00
2023-02-01T23:49:42.941Z,22.15
2023-02-01T23:52:10.277Z,20.60
2023-02-01T23:54:36.738Z,22.45
2023-02-01T23:57:03.245Z,25.45
2023-02-01T23:59:32.535Z,21.90
